Southend — A8XQ4 — position and weather

sailwx.info

Track history (hours):
 
Tides and Currents Weather Stations Pressure Air Temp Water Temp Dewpoint Dewpoint Depression Visibility Wind Speed Wind Dir Waves Ship Positions

Southend

Last reported at 2017-Oct-27 00:24 UTC. Time now 2017-Nov-21 02:48 UTC.
Position N 01°15' E 104°08'.
Warning: this ship's position is 25 days out of date.

Length 187 m; draft 6.7 m.

Type: Cargo ship. MMSI: 636017652.

Date/timePositionNaut miles runAvg speedWind from/ knotsBaromVisibWave heightAir tempDewpointWater temp
2017-Oct-27 00:24N 01°15' E 104°08'5 9.6
2017-Oct-26 23:55N 01°15' E 104°03'3 7.9
2017-Oct-26 23:30N 01°16' E 103°60'3 0.9
2017-Oct-26 20:06N 01°17' E 103°57'0 0.2
2017-Oct-26 19:48N 01°17' E 103°57'0 0.1
2017-Oct-26 18:48N 01°17' E 103°57'0 0.4
2017-Oct-26 18:30N 01°17' E 103°57'0 0.1
2017-Oct-26 18:00N 01°17' E 103°57'0 0.1
2017-Oct-26 17:27N 01°17' E 103°57'0 0.0
2017-Oct-26 16:36N 01°17' E 103°57'0 0.1
2017-Oct-26 16:27N 01°17' E 103°57'0 0.0
2017-Oct-26 15:57N 01°17' E 103°57'0 0.0
2017-Oct-26 15:30N 01°17' E 103°57'0 0.0
2017-Oct-26 15:00N 01°17' E 103°57'0 0.0
2017-Oct-26 14:30N 01°17' E 103°57'0 0.0
2017-Oct-26 14:00N 01°17' E 103°57'0 0.0
2017-Oct-26 13:30N 01°17' E 103°57'0 0.0
2017-Oct-26 12:54N 01°17' E 103°57'0 0.0
2017-Oct-26 12:21N 01°17' E 103°57'0 0.0
2017-Oct-26 11:51N 01°17' E 103°57'0 0.0
2017-Oct-26 11:24N 01°17' E 103°57'0 0.0
2017-Oct-26 10:57N 01°17' E 103°57'0 0.0
2017-Oct-26 10:30N 01°17' E 103°57'0 0.1
2017-Oct-26 10:00N 01°17' E 103°57'0 0.0
2017-Oct-26 09:30N 01°17' E 103°57'0 0.0
2017-Oct-26 08:48N 01°17' E 103°57'0 0.0
2017-Oct-26 08:27N 01°17' E 103°57'0 0.0
2017-Oct-26 08:00N 01°17' E 103°57'0 0.0
2017-Oct-26 07:30N 01°17' E 103°57'0 0.0
2017-Oct-26 07:00N 01°17' E 103°57'0 0.1
2017-Oct-26 06:24N 01°17' E 103°57'0 0.0
2017-Oct-26 05:48N 01°17' E 103°57'0 0.0
2017-Oct-26 05:30N 01°17' E 103°57'0 0.1
2017-Oct-26 04:54N 01°17' E 103°57'0 0.1
2017-Oct-26 04:30N 01°17' E 103°57'0 0.0
2017-Oct-26 03:57N 01°17' E 103°57'0 0.1
2017-Oct-26 03:18N 01°17' E 103°57'0 0.1
2017-Oct-26 02:24N 01°17' E 103°57'0 0.1
2017-Oct-26 01:48N 01°17' E 103°57'0 0.0
2017-Oct-26 01:27N 01°17' E 103°57'0 0.1
2017-Oct-26 00:42N 01°17' E 103°57'1 4.1
2017-Oct-26 00:30N 01°16' E 103°57'2 4.1
2017-Oct-26 00:00N 01°16' E 103°59'3 6.7
2017-Oct-25 23:30N 01°16' E 104°02'  
Track history (hours):
 
Tides and Currents Weather Stations Pressure Air Temp Water Temp Dewpoint Dewpoint Depression Visibility Wind Speed Wind Dir Waves Ship Positions

Southend

Last reported at 2017-Oct-27 00:24 UTC. Time now 2017-Nov-21 02:48 UTC.
Position N 01°15' E 104°08'.
Warning: this ship's position is 25 days out of date.

Length 187 m; draft 6.7 m.

Type: Cargo ship. MMSI: 636017652.

Date/timePositionNaut miles runAvg speedWind from/ knotsBaromVisibWave heightAir tempDewpointWater temp
2017-Oct-27 00:24N 01°15' E 104°08'5 9.6
2017-Oct-26 23:55N 01°15' E 104°03'3 7.9
2017-Oct-26 23:30N 01°16' E 103°60'3 0.9
2017-Oct-26 20:06N 01°17' E 103°57'0 0.2
2017-Oct-26 19:48N 01°17' E 103°57'0 0.1
2017-Oct-26 18:48N 01°17' E 103°57'0 0.4
2017-Oct-26 18:30N 01°17' E 103°57'0 0.1
2017-Oct-26 18:00N 01°17' E 103°57'0 0.1
2017-Oct-26 17:27N 01°17' E 103°57'0 0.0
2017-Oct-26 16:36N 01°17' E 103°57'0 0.1
2017-Oct-26 16:27N 01°17' E 103°57'0 0.0
2017-Oct-26 15:57N 01°17' E 103°57'0 0.0
2017-Oct-26 15:30N 01°17' E 103°57'0 0.0
2017-Oct-26 15:00N 01°17' E 103°57'0 0.0
2017-Oct-26 14:30N 01°17' E 103°57'0 0.0
2017-Oct-26 14:00N 01°17' E 103°57'0 0.0
2017-Oct-26 13:30N 01°17' E 103°57'0 0.0
2017-Oct-26 12:54N 01°17' E 103°57'0 0.0
2017-Oct-26 12:21N 01°17' E 103°57'0 0.0
2017-Oct-26 11:51N 01°17' E 103°57'0 0.0
2017-Oct-26 11:24N 01°17' E 103°57'0 0.0
2017-Oct-26 10:57N 01°17' E 103°57'0 0.0
2017-Oct-26 10:30N 01°17' E 103°57'0 0.1
2017-Oct-26 10:00N 01°17' E 103°57'0 0.0
2017-Oct-26 09:30N 01°17' E 103°57'0 0.0
2017-Oct-26 08:48N 01°17' E 103°57'0 0.0
2017-Oct-26 08:27N 01°17' E 103°57'0 0.0
2017-Oct-26 08:00N 01°17' E 103°57'0 0.0
2017-Oct-26 07:30N 01°17' E 103°57'0 0.0
2017-Oct-26 07:00N 01°17' E 103°57'0 0.1
2017-Oct-26 06:24N 01°17' E 103°57'0 0.0
2017-Oct-26 05:48N 01°17' E 103°57'0 0.0
2017-Oct-26 05:30N 01°17' E 103°57'0 0.1
2017-Oct-26 04:54N 01°17' E 103°57'0 0.1
2017-Oct-26 04:30N 01°17' E 103°57'0 0.0
2017-Oct-26 03:57N 01°17' E 103°57'0 0.1
2017-Oct-26 03:18N 01°17' E 103°57'0 0.1
2017-Oct-26 02:24N 01°17' E 103°57'0 0.1
2017-Oct-26 01:48N 01°17' E 103°57'0 0.0
2017-Oct-26 01:27N 01°17' E 103°57'0 0.1
2017-Oct-26 00:42N 01°17' E 103°57'1 4.1
2017-Oct-26 00:30N 01°16' E 103°57'2 4.1
2017-Oct-26 00:00N 01°16' E 103°59'3 6.7
2017-Oct-25 23:30N 01°16' E 104°02'  

Dump ship's entire track history